Flight Track Log - Related Links

Times and Time Zones

All times are in EDT time to prevent confusion due to time zone crossing. See the DAL268 flight status page for this flight to view local times or setup timezone preferences in your user account.

Time Position Orientation Groundspeed Altitude Reporting Facility
EDT Latitude Longitude Course Direction KTS MPH feet Rate Location/Type
Sat 11:38:25 PM 40.6320 -73.7820 264° West  Level FlightAware ADS-B
Sat 11:41:27 PM 40.6330 -73.7810 37° Northeast 10 12 29 Level FlightAware ADS-B
Sat 11:44:00 PM 40.9266 -73.5067 37° Northeast  Level FlightAware Approximate
Sat 11:45:00 PM 41.0417 -73.4084 30° Northeast  Level FlightAware Approximate
Sat 11:46:00 PM 41.1658 -73.3176 37° Northeast  Level FlightAware Approximate
Sat 11:47:00 PM 41.2847 -73.2146 48° Northeast  Level FlightAware Approximate
Sat 11:48:00 PM 41.3886 -73.0954 72° East  Level FlightAware Approximate
Sat 11:48:29 PM 40.6310 -73.7790 90° East 22 25  Level FlightAware ADS-B
Sat 11:48:53 PM 40.6320 -73.7790 360° North 27 31 72 Level FlightAware ADS-B
Sat 11:49:25 PM 40.6340 -73.7770 37° Northeast 15 17 76 Level FlightAware ADS-B
Sat 11:49:54 PM 40.6360 -73.7760 21° North 16 18 83 Level FlightAware ADS-B
Sat 11:50:18 PM 40.6370 -73.7750 37° Northeast 17 20 90 Level FlightAware ADS-B
Sat 11:50:44 PM 40.6390 -73.7740 21° North 15 17 97 Level FlightAware ADS-B
Sat 11:51:18 PM 40.6410 -73.7730 21° North 28 32 106 Level FlightAware ADS-B
Sat 11:52:12 PM 40.6440 -73.7720 14° North 27 31 121 Level FlightAware ADS-B
Sat 11:52:37 PM 40.6450 -73.7710 37° Northeast 12 14 155 Level FlightAware ADS-B
Sat 11:53:57 PM 40.6460 -73.7700 37° Northeast 22 25 178 Level FlightAware ADS-B
Sat 11:54:39 PM 40.6440 -73.7710 201° Southwest 48 55 337 Level FlightAware ADS-B
Sat 11:55:26 PM 40.6200 -73.7890 210° Southwest 175 201 500 1,083 Climbing FlightAware ADS-B
Sat 11:55:51 PM 40.6030 -73.8030 212° Southwest 179 206 1,300 1,733 Climbing FlightAware ADS-B
Sat 11:56:11 PM 40.5860 -73.8110 200° South 194 223 1,800 1,313 Climbing FlightAware ADS-B
Sat 11:56:23 PM 40.5760 -73.8090 171° South 214 246 2,000 857 Climbing FlightAware ADS-B
Sat 11:56:39 PM 40.5620 -73.7940 141° Southeast 241 277 2,200 1,071 Climbing FlightAware ADS-B
Sat 11:56:51 PM 40.5550 -73.7790 122° Southeast 254 292 2,500 1,200 Climbing FlightAware ADS-B
Sat 11:56:59 PM 40.5530 -73.7660 101° East 264 304 2,600 857 Climbing FlightAware ADS-B
Sat 11:57:19 PM 40.5590 -73.7340 76° East 283 326 2,900 1,333 Climbing FlightAware ADS-B
Sat 11:57:35 PM 40.5710 -73.7100 57° Northeast 292 336 3,400 2,143 Climbing FlightAware ADS-B
Sat 11:58:01 PM 40.5954 -73.6752 47° Northeast 301 346 4,400 2,500 Climbing FlightAware ADS-B
Sat 11:58:23 PM 40.6165 -73.6452 47° Northeast 306 352 5,400 2,595 Climbing FlightAware ADS-B
Sat 11:58:38 PM 40.6312 -73.6247 47° Northeast 306 352 6,000 2,600 Climbing FlightAware ADS-B
Sat 11:58:53 PM 40.6462 -73.6039 46° Northeast 313 360 6,700 2,571 Climbing FlightAware ADS-B
Sat 11:59:13 PM 40.6671 -73.5775 44° Northeast 320 368 7,500 2,160 Climbing FlightAware ADS-B
Sat 11:59:18 PM 40.6731 -73.5723 33° Northeast 321 369 7,600 2,000 Climbing FlightAware ADS-B
Sat 11:59:25 PM 40.6826 -73.5656 28° Northeast 323 372 7,900 2,538 Climbing FlightAware ADS-B
Sat 11:59:44 PM 40.7078 -73.5485 27° Northeast 327 376 8,700 2,024 Climbing FlightAware ADS-B
Sun 12:00:48 AM 40.7990 -73.4940 24° Northeast 359 413 10,700 1,596 Climbing FlightAware ADS-B
Sun 12:01:33 AM 40.8730 -73.4510 24° Northeast 402 463 11,600 1,186 Climbing FlightAware ADS-B
Sun 12:02:14 AM 40.9450 -73.4090 24° Northeast 434 499 12,400 1,571 Climbing FlightAware ADS-B
Sun 12:02:57 AM 41.0260 -73.3600 25° Northeast 451 519 13,800 1,929 Climbing FlightAware ADS-B
Sun 12:03:38 AM 41.0990 -73.2970 33° Northeast 465 535 15,100 1,976 Climbing FlightAware ADS-B
Sun 12:04:19 AM 41.1610 -73.2160 45° Northeast 475 547 16,500 1,976 Climbing FlightAware ADS-B
Sun 12:05:03 AM 41.2310 -73.1210 46° Northeast 482 555 17,900 1,929 Climbing FlightAware ADS-B
Sun 12:05:43 AM 41.2940 -73.0350 46° Northeast 489 563 19,200 1,765 Climbing FlightAware ADS-B
Sun 12:06:28 AM 41.3640 -72.9400 46° Northeast 500 575 20,400 1,624 Climbing FlightAware ADS-B
Sun 12:07:08 AM 41.4300 -72.8490 46° Northeast 507 583 21,500 1,111 Climbing FlightAware ADS-B
Sun 12:07:49 AM 41.4890 -72.7660 46° Northeast 509 586 21,900 308 Climbing FlightAware ADS-B
Sun 12:08:26 AM 41.5400 -72.6940 47° Northeast 509 586 21,900  Level FlightAware ADS-B
Sun 12:09:14 AM 41.6050 -72.6000 47° Northeast 509 586 21,900 1,740 Level FlightAware ADS-B
Sun 12:09:41 AM 41.6920 -72.5120 37° Northeast 24,800 2,747 Climbing FlightAware ADS-B
Sun 12:10:37 AM 41.7810 -72.4000 43° Northeast 552 635 25,700 845 Climbing FlightAware ADS-B
Sun 12:12:03 AM 41.9350 -72.2050 43° Northeast 560 644 26,800 1,113 Climbing FlightAware ADS-B
Sun 12:12:41 AM 42.0350 -72.0740 44° Northeast 578 665 28,000 1,425 Climbing FlightAware ADS-B
Sun 12:13:23 AM 42.1090 -71.9800 43° Northeast 584 672 28,700 1,146 Climbing FlightAware ADS-B
Sun 12:14:10 AM 42.2030 -71.8580 44° Northeast 584 672 29,700 1,326 Climbing FlightAware ADS-B
Sun 12:14:49 AM 42.2860 -71.7510 44° Northeast 583 671 30,600 1,037 Climbing FlightAware ADS-B
Sun 12:15:31 AM 42.3475 -71.6481 44° Northeast 579 666 31,100 824 Climbing Boston Center
Sun 12:16:31 AM 42.4694 -71.4972 42° Northeast 579 666 32,000 793 Climbing Boston Center
Sun 12:17:32 AM 42.5889 -71.3403 44° Northeast 586 674 32,700 500 Climbing Boston Center
Sun 12:18:31 AM 42.7061 -71.1828 45° Northeast 586 674 33,000 151 Climbing Boston Center
Sun 12:19:31 AM 42.8250 -71.0247 44° Northeast 586 674 33,000  Level Boston Center
Sun 12:20:31 AM 42.9419 -70.8661 45° Northeast 586 674 33,000  Level Boston Center
Sun 12:21:31 AM 43.0603 -70.7039 45° Northeast 586 674 33,000  Level Boston Center
Sun 12:22:31 AM 43.1786 -70.5439 45° Northeast 586 674 33,000  Level Boston Center
Sun 12:23:31 AM 43.2947 -70.3861 45° Northeast 581 669 33,000  Level Boston Center
Sun 12:24:31 AM 43.4125 -70.2250 45° Northeast 581 669 33,000  Level Boston Center
Sun 12:25:31 AM 43.5281 -70.0603 46° Northeast 581 669 33,000  Level Boston Center
Sun 12:26:31 AM 43.6433 -69.8981 45° Northeast 581 669 33,000  Level Boston Center
Sun 12:27:31 AM 43.7586 -69.7378 45° Northeast 581 669 33,000  Level Boston Center
Sun 12:28:31 AM 43.8753 -69.5714 46° Northeast 581 669 33,000  Level Boston Center
Sun 12:29:31 AM 43.9900 -69.4100 45° Northeast 581 669 33,000  Level Boston Center
Sun 12:30:31 AM 44.1064 -69.2450 45° Northeast 581 669 33,000  Level Boston Center
Sun 12:31:31 AM 44.2206 -69.0794 46° Northeast 581 669 33,000  Level Boston Center
Sun 12:32:31 AM 44.3364 -68.9133 46° Northeast 581 669 33,000  Level Boston Center
Sun 12:33:31 AM 44.4542 -68.7461 45° Northeast 581 669 33,000  Level Boston Center
Sun 12:34:31 AM 44.5675 -68.5786 46° Northeast 581 669 33,000  Level Boston Center
Sun 12:35:38 AM 44.7000 -68.3667 49° Northeast 600 690 33,000  Level Moncton Center
Sun 12:36:38 AM 44.8000 -68.2167 47° Northeast 590 679 33,000  Level Moncton Center
Sun 12:37:39 AM 44.9167 -68.0333 48° Northeast 590 679 33,000  Level Moncton Center
Sun 12:38:39 AM 45.0333 -67.8833 42° Northeast 590 679 33,000  Level Moncton Center
Sun 12:44:42 AM 45.2540 -67.6060 42° Northeast 596 686 33,000  Level FlightAware ADS-B
Sun 12:45:18 AM 45.3120 -67.5190 47° Northeast 596 686 33,000  Level FlightAware ADS-B
Sun 12:46:07 AM 45.8700 -66.6220 48° Northeast 589 678 33,000  Level FlightAware ADS-B
Sun 12:46:52 AM 45.9580 -66.4820 48° Northeast 591 680 33,000  Level FlightAware ADS-B
Sun 12:47:31 AM 46.0280 -66.3700 48° Northeast 590 679 33,000  Level FlightAware ADS-B
Sun 12:48:11 AM 46.1030 -66.2510 48° Northeast 590 679 33,000  Level FlightAware ADS-B
Sun 12:48:48 AM 46.1600 -66.1580 48° Northeast 590 679 33,000  Level FlightAware ADS-B
Sun 12:49:36 AM 46.2350 -66.0390 48° Northeast 590 679 33,000  Level FlightAware ADS-B
Sun 12:50:12 AM 46.2910 -65.9490 48° Northeast 590 679 33,000  Level FlightAware ADS-B
Sun 12:51:14 AM 46.3870 -65.7940 48° Northeast 590 679 33,000  Level FlightAware ADS-B
Sun 12:52:18 AM 46.4860 -65.6340 48° Northeast 590 679 33,000  Level FlightAware ADS-B
Sun 12:53:33 AM 46.6030 -65.4460 48° Northeast 590 679 33,000  Level FlightAware ADS-B
Sun 12:54:09 AM 46.6580 -65.3560 48° Northeast 590 679 33,000  Level FlightAware ADS-B
Sun 12:54:49 AM 46.7210 -65.2550 48° Northeast 590 679 33,000  Level FlightAware ADS-B
Sun 12:55:47 AM 46.8110 -65.1090 48° Northeast 590 679 33,000  Level FlightAware ADS-B
Sun 12:57:23 AM 46.9600 -64.8670 48° Northeast 590 679 33,000  Level FlightAware ADS-B
Sun 12:58:12 AM 47.1833 -64.4333 48° Northeast 600 690 33,000  Level Gander Center
Sun 12:58:51 AM 47.2333 -64.3000 61° Northeast 600 690 33,000  Level Gander Center
Sun 12:59:38 AM 47.3333 -64.1500 45° Northeast 600 690 33,000  Level Moncton Center
Sun 01:00:38 AM 47.4500 -63.9833 44° Northeast 600 690 33,000  Level Moncton Center
Sun 01:01:38 AM 47.5500 -63.7833 53° Northeast 600 690 33,000  Level Moncton Center
Sun 01:02:38 AM 47.6667 -63.6000 47° Northeast 600 690 33,000  Level Moncton Center
Sun 01:03:38 AM 47.7667 -63.4000 53° Northeast 600 690 33,000  Level Moncton Center
Sun 01:04:38 AM 47.8667 -63.2167 51° Northeast 590 679 33,000  Level Moncton Center
Sun 01:05:38 AM 47.9833 -63.0500 44° Northeast 590 679 33,000  Level Moncton Center
Sun 01:06:38 AM 48.0833 -62.8500 53° Northeast 600 690 33,000  Level Moncton Center
Sun 01:07:38 AM 48.1833 -62.6667 51° Northeast 590 679 33,000  Level Moncton Center
Sun 01:08:38 AM 48.3000 -62.4667 49° Northeast 590 679 33,000  Level Moncton Center
Sun 01:09:38 AM 48.4000 -62.2500 55° Northeast 590 679 33,000  Level Moncton Center
Sun 01:10:38 AM 48.5000 -62.0667 50° Northeast 600 690 33,000  Level Moncton Center
Sun 01:11:38 AM 48.6167 -61.8667 49° Northeast 600 690 33,000  Level Moncton Center
Sun 01:12:38 AM 48.7000 -61.6833 55° Northeast 600 690 33,000  Level Moncton Center
Sun 01:13:38 AM 48.8167 -61.4667 51° Northeast 600 690 33,000  Level Moncton Center
Sun 01:14:38 AM 48.9167 -61.2833 50° Northeast 590 679 33,000  Level Moncton Center
Sun 01:15:38 AM 49.0333 -61.0833 48° Northeast 600 690 33,000  Level Moncton Center
Sun 01:16:38 AM 49.1167 -60.8667 59° Northeast 590 679 33,000  Level Moncton Center
Sun 01:17:38 AM 49.2167 -60.6833 50° Northeast 600 690 33,000  Level Moncton Center
Sun 01:18:38 AM 49.3500 -60.4833 44° Northeast 590 679 33,000  Level Moncton Center
Sun 01:19:38 AM 49.4667 -60.3500 37° Northeast 590 679 33,000  Level Moncton Center
Sun 01:20:38 AM 49.6000 -60.1833 39° Northeast 590 679 33,000  Level Moncton Center
Sun 01:21:38 AM 49.7167 -60.0167 43° Northeast 580 667 33,000  Level Moncton Center
Sun 01:22:38 AM 49.8333 -59.8333 45° Northeast 590 679 33,000  Level Moncton Center
Sun 01:23:38 AM 49.9500 -59.6667 43° Northeast 580 667 33,000  Level Moncton Center
Sun 01:24:38 AM 50.0333 -59.4667 57° Northeast 590 679 33,000  Level Moncton Center
Sun 01:25:38 AM 50.1333 -59.2500 54° Northeast 580 667 33,000  Level Moncton Center
Sun 01:26:38 AM 50.2333 -59.0500 52° Northeast 590 679 33,000  Level Moncton Center
Sun 01:27:38 AM 50.3333 -58.8333 54° Northeast 590 679 33,000  Level Moncton Center
Sun 01:28:38 AM 50.4167 -58.6333 57° Northeast 590 679 33,000  Level Moncton Center
Sun 01:29:38 AM 50.5333 -58.4167 50° Northeast 590 679 33,000  Level Moncton Center
Sun 01:30:38 AM 50.6167 -58.2167 57° Northeast 580 667 33,000  Level Moncton Center
Sun 01:31:12 AM 50.6833 -58.1167 44° Northeast 590 679 33,000  Level Gander Center
Sun 01:31:51 AM 50.7333 -57.9833 59° Northeast 580 667 33,000  Level Gander Center
Sun 01:32:51 AM 50.8333 -57.7667 54° Northeast 580 667 33,000  Level Gander Center
Sun 01:33:38 AM 50.9000 -57.6000 58° Northeast 590 679 33,000  Level Moncton Center
Sun 01:34:38 AM 51.0000 -57.3667 56° Northeast 590 679 33,000  Level Moncton Center
Sun 01:35:12 AM 51.0500 -57.2667 51° Northeast 590 679 33,000  Level Gander Center
Sun 01:35:51 AM 51.1000 -57.1333 59° Northeast 580 667 33,000 61 Level Gander Center
Sun 01:36:51 AM 51.1667 -56.8833 67° East 580 667 33,100 500 Climbing Gander Center
Sun 01:37:51 AM 51.2500 -56.6667 58° Northeast 580 667 34,000 505 Climbing Gander Center
Sun 01:38:38 AM 51.3000 -56.4667 68° East 570 656 34,000  Level Moncton Center
Sun 01:39:12 AM 51.3500 -56.3500 56° Northeast 570 656 34,000  Level Gander Center
Sun 01:40:12 AM 51.4333 -56.1000 62° Northeast 570 656 34,000  Level Gander Center
Sun 01:40:51 AM 51.4667 -55.9667 68° East 580 667 34,000  Level Gander Center
Sun 01:41:38 AM 51.5167 -55.7833 66° East 580 667 34,000  Level Moncton Center
Sun 01:42:12 AM 51.5500 -55.6333 70° East 580 667 34,000  Level Gander Center
Sun 01:42:51 AM 51.6000 -55.4833 62° Northeast 580 667 34,000  Level Gander Center
Sun 01:43:12 AM 51.6333 -55.4000 68° East 590 679 34,000  Level Gander Center
Sun 01:43:24 AM 52.2167 -53.3667 68° East 562 647 34,000  Level ETMS Enhanced Traffic Management System
Sun 01:43:51 AM 51.6667 -55.2667 68° East 580 667 34,000  Level Gander Center
Sun 01:44:51 AM 51.7500 -55.0333 60° Northeast 580 667 34,000  Level Gander Center
Sun 01:45:51 AM 51.8167 -54.7833 67° East 590 679 34,000  Level Gander Center
Sun 01:46:51 AM 51.8667 -54.5667 69° East 580 667 34,000  Level Gander Center
Sun 01:47:51 AM 51.9500 -54.3000 63° Northeast 580 667 34,000  Level Gander Center
Sun 01:48:51 AM 52.0000 -54.0833 69° East 590 679 34,000  Level Gander Center
Sun 01:49:51 AM 52.0667 -53.8167 68° East 580 667 34,000  Level Gander Center
Sun 01:50:51 AM 52.1500 -53.5833 60° Northeast 590 679 34,000  Level Gander Center
Sun 01:51:51 AM 52.2000 -53.3667 69° East 580 667 34,000  Level Gander Center
Sun 01:52:51 AM 52.2667 -53.1000 68° East 580 667 34,000  Level Gander Center
Sun 01:53:51 AM 52.3167 -52.8500 72° East 570 656 34,000  Level Gander Center
Sun 01:54:51 AM 52.3667 -52.5833 73° East 580 667 34,000  Level Gander Center
Sun 01:55:51 AM 52.4167 -52.3500 71° East 590 679 34,000  Level Gander Center
Sun 01:56:51 AM 52.4667 -52.1000 72° East 580 667 34,000  Level Gander Center
Sun 01:57:51 AM 52.5167 -51.8333 73° East 580 667 34,000  Level Gander Center
Sun 01:58:51 AM 52.5833 -51.6000 65° Northeast 580 667 34,000  Level Gander Center
Sun 01:59:51 AM 52.6167 -51.4000 75° East 580 667 34,000  Level Gander Center
Sun 02:00:51 AM 52.6833 -51.1333 67° East 580 667 34,000  Level Gander Center
Sun 02:01:51 AM 52.7500 -50.9000 65° Northeast 590 679 34,000  Level Gander Center
Sun 02:02:51 AM 52.7833 -50.6333 78° East 570 656 34,000  Level Gander Center
Sun 02:03:51 AM 52.8500 -50.4000 65° Northeast 570 656 34,000  Level Gander Center
Sun 02:04:51 AM 52.9000 -50.1333 73° East 570 656 34,000  Level Gander Center
Sun 02:05:51 AM 52.9500 -49.9000 70° East 580 667 34,000  Level Gander Center
Sun 02:08:00 AM 53.0165 -49.4620 76° East  Level FlightAware Approximate
Sun 02:11:00 AM 53.0000 -50.0000 76° East 570 656 34,000  Level ETMS Enhanced Traffic Management System
Sun 02:15:00 AM 53.2595 -47.7462 76° East  Level FlightAware Approximate
Sun 02:16:00 AM 53.2922 -47.4995 77° East  Level FlightAware Approximate
Sun 02:17:00 AM 53.4055 -46.8955 79° East 570 656 34,000  Level FlightAware Transoceanic
Sun 02:18:00 AM 53.4356 -46.6343 79° East 570 656 34,000  Level FlightAware Transoceanic
Sun 02:19:00 AM 53.4652 -46.3726 79° East 570 656 34,000  Level FlightAware Transoceanic
Sun 02:20:00 AM 53.4942 -46.1106 80° East 570 656 34,000  Level FlightAware Transoceanic
Sun 02:21:00 AM 53.5226 -45.8483 80° East 570 656 34,000  Level FlightAware Transoceanic
Sun 02:22:00 AM 53.5504 -45.5855 80° East 570 656 34,000  Level FlightAware Transoceanic
Sun 02:23:00 AM 53.5777 -45.3225 80° East 570 656 34,000  Level FlightAware Transoceanic
Sun 02:24:00 AM 53.6044 -45.0591 80° East 570 656 34,000  Level FlightAware Transoceanic
Sun 02:25:00 AM 53.6305 -44.7954 81° East 570 656 34,000  Level FlightAware Transoceanic
Sun 02:26:00 AM 53.6560 -44.5314 81° East 570 656 34,000  Level FlightAware Transoceanic
Sun 02:27:00 AM 53.6809 -44.2670 81° East 570 656 34,000  Level FlightAware Transoceanic
Sun 02:28:00 AM 53.7053 -44.0024 81° East 570 656 34,000  Level FlightAware Transoceanic
Sun 02:29:00 AM 53.7291 -43.7374 81° East 570 656 34,000  Level FlightAware Transoceanic
Sun 02:30:00 AM 53.7523 -43.4721 82° East 570 656 34,000  Level FlightAware Transoceanic
Sun 02:31:00 AM 53.7749 -43.2066 82° East 570 656 34,000  Level FlightAware Transoceanic
Sun 02:32:00 AM 53.7969 -42.9408 82° East 570 656 34,000  Level FlightAware Transoceanic
Sun 02:33:00 AM 53.8183 -42.6746 82° East 570 656 34,000  Level FlightAware Transoceanic
Sun 02:34:00 AM 53.8391 -42.4083 83° East 570 656 34,000  Level FlightAware Transoceanic
Sun 02:35:00 AM 53.8594 -42.1416 83° East 570 656 34,000  Level FlightAware Transoceanic
Sun 02:36:00 AM 53.8791 -41.8747 83° East 570 656 34,000  Level FlightAware Transoceanic
Sun 02:37:00 AM 53.8981 -41.6076 83° East 570 656 34,000  Level FlightAware Transoceanic
Sun 02:38:00 AM 53.9166 -41.3402 83° East 570 656 34,000  Level FlightAware Transoceanic
Sun 02:39:00 AM 53.9345 -41.0726 84° East 570 656 34,000  Level FlightAware Transoceanic
Sun 02:40:00 AM 53.9517 -40.8048 84° East 570 656 34,000  Level FlightAware Transoceanic
Sun 02:41:00 AM 53.9684 -40.5367 84° East 570 656 34,000  Level FlightAware Transoceanic
Sun 02:42:00 AM 53.9845 -40.2685 84° East 570 656 34,000  Level FlightAware Transoceanic
Sun 02:43:00 AM 53.9993 -40.0127 84° East  Level FlightAware Approximate
Sun 02:44:00 AM 54.0135 -39.7568 84° East  Level FlightAware Approximate
Sun 02:44:00 AM 54.0000 -40.0000 86° East 587 676 34,000  Level ETMS Enhanced Traffic Management System
Sun 02:45:00 AM 54.0093 -39.7690 86° East  Level FlightAware Approximate
Sun 02:46:00 AM 54.0189 -39.5163 86° East  Level FlightAware Approximate
Sun 02:47:00 AM 54.0281 -39.2634 86° East  Level FlightAware Approximate
Sun 02:48:00 AM 54.0367 -39.0104 87° East  Level FlightAware Approximate
Sun 02:49:00 AM 54.0447 -38.7574 87° East  Level FlightAware Approximate
Sun 02:50:00 AM 54.0650 -38.0588 88° East 587 676 34,000  Level FlightAware Transoceanic
Sun 02:51:00 AM 54.0717 -37.7810 88° East 587 676 34,000  Level FlightAware Transoceanic
Sun 02:52:00 AM 54.0778 -37.5031 88° East 587 676 34,000  Level FlightAware Transoceanic
Sun 02:53:00 AM 54.0833 -37.2252 88° East 587 676 34,000  Level FlightAware Transoceanic
Sun 02:54:00 AM 54.0881 -36.9472 88° East 587 676 34,000  Level FlightAware Transoceanic
Sun 02:55:00 AM 54.0923 -36.6691 89° East 587 676 34,000  Level FlightAware Transoceanic
Sun 02:56:00 AM 54.0958 -36.3910 89° East 587 676 34,000  Level FlightAware Transoceanic
Sun 02:57:00 AM 54.0987 -36.1129 89° East 587 676 34,000  Level FlightAware Transoceanic
Sun 02:58:00 AM 54.1009 -35.8347 89° East 587 676 34,000  Level FlightAware Transoceanic
Sun 02:59:00 AM 54.1025 -35.5565 90° East 587 676 34,000  Level FlightAware Transoceanic
Sun 03:00:00 AM 54.1035 -35.2782 90° East 587 676 34,000  Level FlightAware Transoceanic
Sun 03:01:00 AM 54.1038 -35.0000 90° East 587 676 34,000  Level FlightAware Transoceanic
Sun 03:02:00 AM 54.1035 -34.7218 90° East 587 676 34,000  Level FlightAware Transoceanic
Sun 03:03:00 AM 54.1025 -34.4435 90° East 587 676 34,000  Level FlightAware Transoceanic
Sun 03:04:00 AM 54.1009 -34.1653 91° East 587 676 34,000  Level FlightAware Transoceanic
Sun 03:05:00 AM 54.0987 -33.8871 91° East 587 676 34,000  Level FlightAware Transoceanic
Sun 03:06:00 AM 54.0958 -33.6090 91° East 587 676 34,000  Level FlightAware Transoceanic
Sun 03:07:00 AM 54.0923 -33.3309 91° East 587 676 34,000  Level FlightAware Transoceanic
Sun 03:08:00 AM 54.0881 -33.0528 92° East 587 676 34,000  Level FlightAware Transoceanic
Sun 03:09:00 AM 54.0833 -32.7748 92° East 587 676 34,000  Level FlightAware Transoceanic
Sun 03:10:00 AM 54.0778 -32.4969 92° East 587 676 34,000  Level FlightAware Transoceanic
Sun 03:11:00 AM 54.0717 -32.2190 92° East 587 676 34,000  Level FlightAware Transoceanic
Sun 03:12:00 AM 54.0650 -31.9412 92° East 587 676 34,000  Level FlightAware Transoceanic
Sun 03:13:00 AM 54.0576 -31.6636 93° East 587 676 34,000  Level FlightAware Transoceanic
Sun 03:14:00 AM 54.0496 -31.3860 93° East 587 676 34,000  Level FlightAware Transoceanic
Sun 03:15:00 AM 54.0410 -31.1085 93° East 587 676 34,000  Level FlightAware Transoceanic
Sun 03:16:00 AM 54.0317 -30.8312 93° East 587 676 34,000  Level FlightAware Transoceanic
Sun 03:17:00 AM 54.0218 -30.5540 94° East 587 676 34,000  Level FlightAware Transoceanic
Sun 03:18:00 AM 54.0112 -30.2769 94° East 587 676 34,000  Level FlightAware Transoceanic
Sun 03:19:00 AM 54.0010 -30.0243 94° East  Level FlightAware Approximate
Sun 03:20:00 AM 53.9903 -29.7718 94° East  Level FlightAware Approximate
Sun 03:21:00 AM 53.9883 -29.7965 95° East  Level FlightAware Approximate
Sun 03:22:00 AM 53.9734 -29.5447 96° East  Level FlightAware Approximate
Sun 03:22:00 AM 54.0000 -30.0000 95° East 570 656 34,000  Level ETMS Enhanced Traffic Management System
Sun 03:23:00 AM 53.9579 -29.2931 96° East  Level FlightAware Approximate
Sun 03:24:00 AM 53.9419 -29.0417 96° East  Level FlightAware Approximate
Sun 03:25:00 AM 53.9254 -28.7904 96° East  Level FlightAware Approximate
Sun 03:26:00 AM 53.9084 -28.5394 96° East  Level FlightAware Approximate
Sun 03:27:00 AM 53.8908 -28.2886 97° East  Level FlightAware Approximate
Sun 03:28:00 AM 53.8594 -27.8584 97° East 570 656 34,000  Level FlightAware Transoceanic
Sun 03:29:00 AM 53.8391 -27.5917 97° East 570 656 34,000  Level FlightAware Transoceanic
Sun 03:30:00 AM 53.8183 -27.3253 98° East 570 656 34,000  Level FlightAware Transoceanic
Sun 03:31:00 AM 53.7969 -27.0592 98° East 570 656 34,000  Level FlightAware Transoceanic
Sun 03:32:00 AM 53.7749 -26.7934 98° East 570 656 34,000  Level FlightAware Transoceanic
Sun 03:33:00 AM 53.7523 -26.5279 98° East 570 656 34,000  Level FlightAware Transoceanic
Sun 03:34:00 AM 53.7291 -26.2626 99° East 570 656 34,000  Level FlightAware Transoceanic
Sun 03:35:00 AM 53.7053 -25.9976 99° East 570 656 34,000  Level FlightAware Transoceanic
Sun 03:36:00 AM 53.6809 -25.7330 99° East 570 656 34,000  Level FlightAware Transoceanic
Sun 03:37:00 AM 53.6560 -25.4686 99° East 570 656 34,000  Level FlightAware Transoceanic
Sun 03:38:00 AM 53.6305 -25.2046 99° East 570 656 34,000  Level FlightAware Transoceanic
Sun 03:39:00 AM 53.6044 -24.9409 100° East 570 656 34,000  Level FlightAware Transoceanic
Sun 03:40:00 AM 53.5777 -24.6775 100° East 570 656 34,000  Level FlightAware Transoceanic
Sun 03:41:00 AM 53.5504 -24.4144 100° East 570 656 34,000  Level FlightAware Transoceanic
Sun 03:42:00 AM 53.5226 -24.1518 100° East 570 656 34,000  Level FlightAware Transoceanic
Sun 03:43:00 AM 53.4942 -23.8894 100° East 570 656 34,000  Level FlightAware Transoceanic
Sun 03:44:00 AM 53.4652 -23.6274 101° East 570 656 34,000  Level FlightAware Transoceanic
Sun 03:45:00 AM 53.4356 -23.3657 101° East 570 656 34,000  Level FlightAware Transoceanic
Sun 03:46:00 AM 53.4055 -23.1045 101° East 570 656 34,000  Level FlightAware Transoceanic
Sun 03:47:00 AM 53.3748 -22.8436 101° East 570 656 34,000  Level FlightAware Transoceanic
Sun 03:48:00 AM 53.3436 -22.5831 101° East 570 656 34,000  Level FlightAware Transoceanic
Sun 03:49:00 AM 53.3117 -22.3229 102° East 570 656 34,000  Level FlightAware Transoceanic
Sun 03:50:00 AM 53.2793 -22.0632 102° East 570 656 34,000  Level FlightAware Transoceanic
Sun 03:51:00 AM 53.2464 -21.8038 102° East 570 656 34,000  Level FlightAware Transoceanic
Sun 03:52:00 AM 53.2128 -21.5449 102° East 570 656 34,000  Level FlightAware Transoceanic
Sun 03:53:00 AM 53.1788 -21.2864 103° East 570 656 34,000  Level FlightAware Transoceanic
Sun 03:54:00 AM 53.1441 -21.0282 103° East 570 656 34,000  Level FlightAware Transoceanic
Sun 03:55:00 AM 53.1089 -20.7705 103° East 570 656 34,000  Level FlightAware Transoceanic
Sun 03:56:00 AM 53.0732 -20.5133 103° East 570 656 34,000  Level FlightAware Transoceanic
Sun 03:57:00 AM 53.0369 -20.2564 103° East 570 656 34,000 34 Level FlightAware Transoceanic
Sun 03:58:00 AM 53.0023 -20.0158 103° East  Level FlightAware Approximate
Sun 03:59:00 AM 52.9672 -19.7756 104° East  Level FlightAware Approximate
Sun 04:00:00 AM 52.9993 -19.7852 90° East  Level FlightAware Approximate
Sun 04:01:00 AM 52.9980 -19.5379 90° East  Level FlightAware Approximate
Sun 04:02:00 AM 52.9963 -19.2906 91° East  Level FlightAware Approximate
Sun 04:03:00 AM 52.9939 -19.0434 91° East  Level FlightAware Approximate
Sun 04:04:00 AM 52.9911 -18.7962 91° East  Level FlightAware Approximate
Sun 04:05:00 AM 52.9878 -18.5490 91° East  Level FlightAware Approximate
Sun 04:06:00 AM 52.9840 -18.3019 91° East  Level FlightAware Approximate
Sun 04:07:00 AM 52.9796 -18.0548 92° East  Level FlightAware Approximate
Sun 04:08:00 AM 52.9748 -17.8078 92° East  Level FlightAware Approximate
Sun 04:09:00 AM 52.9694 -17.5608 92° East  Level FlightAware Approximate
Sun 04:10:00 AM 52.9635 -17.3139 92° East  Level FlightAware Approximate
Sun 04:11:00 AM 52.9571 -17.0671 92° East  Level FlightAware Approximate
Sun 04:12:00 AM 52.9502 -16.8203 93° East  Level FlightAware Approximate
Sun 04:13:00 AM 52.9428 -16.5736 93° East  Level FlightAware Approximate
Sun 04:14:00 AM 52.9348 -16.3270 93° East  Level FlightAware Approximate
Sun 04:15:00 AM 52.9264 -16.0805 93° East  Level FlightAware Approximate
Sun 04:16:00 AM 52.9174 -15.8341 93° East  Level FlightAware Approximate
Sun 04:17:00 AM 52.9080 -15.5878 94° East  Level FlightAware Approximate
Sun 04:18:00 AM 52.8980 -15.3416 94° East  Level FlightAware Approximate
Sun 04:19:00 AM 52.8875 -15.0956 94° East  Level FlightAware Approximate
Sun 04:20:00 AM 52.8774 -14.8495 94° East  Level FlightAware Approximate
Sun 04:21:00 AM 52.8672 -14.6035 94° East  Level FlightAware Approximate
Sun 04:22:00 AM 52.8565 -14.3577 94° East  Level FlightAware Approximate
Sun 04:23:00 AM 52.8453 -14.1119 94° East  Level FlightAware Approximate
Sun 04:24:00 AM 52.8336 -13.8663 94° East  Level FlightAware Approximate
Sun 04:25:00 AM 52.8214 -13.6208 95° East  Level FlightAware Approximate
Sun 04:25:36 AM 52.8990 -13.0580 95° East 540 621 35,000  Level FlightAware ADS-B
Sun 04:26:00 AM 52.8087 -13.3755 95° East  Level FlightAware Approximate
Sun 04:26:17 AM 52.8870 -12.8900 97° East 541 623 35,000  Level FlightAware ADS-B
Sun 04:27:02 AM 52.8720 -12.7030 97° East 541 623 35,000  Level FlightAware ADS-B
Sun 04:27:43 AM 52.8590 -12.5440 98° East 539 620 35,000  Level FlightAware ADS-B
Sun 04:28:22 AM 52.8460 -12.3790 97° East 539 620 35,000  Level FlightAware ADS-B
Sun 04:29:02 AM 52.8320 -12.2140 98° East 540 621 35,000  Level FlightAware ADS-B
Sun 04:29:47 AM 52.8180 -12.0280 97° East 540 621 35,000  Level FlightAware ADS-B
Sun 04:32:00 AM 52.7731 -11.4875 98° East  Level FlightAware Approximate
Sun 04:33:00 AM 52.7520 -11.2440 98° East  Level FlightAware Approximate
Sun 04:34:00 AM 52.7305 -11.0008 98° East  Level FlightAware Approximate
Sun 04:34:08 AM 52.7320 -10.9880 98° East 542 624 35,000  Level FlightAware ADS-B
Sun 04:34:51 AM 52.7130 -10.7850 99° East 540 621 35,000  Level FlightAware ADS-B
Sun 04:35:31 AM 52.6970 -10.6200 99° East 537 618 35,000  Level FlightAware ADS-B
Sun 04:36:26 AM 52.6760 -10.4000 99° East 536 617 35,000  Level FlightAware ADS-B
Sun 04:37:11 AM 52.6580 -10.2200 99° East 536 617 35,000  Level FlightAware ADS-B
Sun 04:37:52 AM 52.6410 -10.0570 100° East 536 617 35,000  Level FlightAware ADS-B
Sun 04:38:30 AM 52.6250 -9.8990 99° East 536 617 35,000  Level FlightAware ADS-B
Sun 04:39:16 AM 52.6060 -9.7200 100° East 536 617 35,000  Level FlightAware ADS-B
Sun 04:39:56 AM 52.5880 -9.5550 100° East 536 617 35,000  Level FlightAware ADS-B
Sun 04:40:51 AM 52.5640 -9.3350 100° East 536 617 35,000  Level FlightAware ADS-B
Sun 04:41:36 AM 52.5440 -9.1520 100° East 538 619 35,000  Level FlightAware ADS-B
Sun 04:42:18 AM 52.5270 -8.9930 100° East 537 618 35,000  Level FlightAware ADS-B
Sun 04:42:50 AM 52.4963 -8.8467 100° East 494 568 35,000  Level FlightAware UK
Sun 04:43:01 AM 52.5070 -8.8160 100° East 535 616 35,000  Level FlightAware ADS-B
Sun 04:43:41 AM 52.4880 -8.6510 101° East 533 613 35,000  Level FlightAware ADS-B
Sun 04:44:20 AM 52.4552 -8.4888 101° East 494 568 35,000  Level FlightAware UK
Sun 04:44:21 AM 52.4700 -8.4980 101° East 533 613 35,000  Level FlightAware ADS-B
Sun 04:45:20 AM 52.4267 -8.2511 101° East 496 571 35,000  Level FlightAware UK
Sun 04:45:50 AM 52.4124 -8.1327 101° East 496 571 35,000  Level FlightAware UK
Sun 04:46:20 AM 52.3981 -8.0148 101° East 492 566 35,000  Level FlightAware UK
Sun 04:46:50 AM 52.3834 -7.8978 102° East 490 564 35,000  Level FlightAware UK
Sun 04:47:20 AM 52.3688 -7.7809 101° East 494 568 35,000  Level FlightAware UK
Sun 04:47:56 AM 52.3513 -7.6407 101° East 492 566 35,000  Level FlightAware UK
Sun 04:48:26 AM 52.3367 -7.5240 102° East 488 562 35,000  Level FlightAware UK
Sun 04:48:56 AM 52.3220 -7.4076 102° East 490 564 35,000  Level FlightAware UK
Sun 04:49:13 AM 52.3350 -7.3980 102° East 526 605 35,000  Level FlightAware ADS-B
Sun 04:49:54 AM 52.3080 -7.1910 102° East 528 608 35,000  Level FlightAware ADS-B
Sun 04:50:27 AM 52.2766 -7.0568 102° East 490 564 35,000  Level FlightAware UK
Sun 04:50:31 AM 52.2900 -7.0520 102° East 528 608 35,000  Level FlightAware ADS-B
Sun 04:51:11 AM 52.2690 -6.8920 102° East 528 608 35,000  Level FlightAware ADS-B
Sun 04:51:48 AM 52.2490 -6.7500 103° East 529 609 35,000  Level FlightAware ADS-B
Sun 04:52:27 AM 52.2148 -6.5887 103° East 492 566 35,000  Level FlightAware UK
Sun 04:52:28 AM 52.2290 -6.5990 103° East 529 609 35,000  Level FlightAware ADS-B
Sun 04:53:20 AM 52.2010 -6.3900 102° East 529 609 35,000  Level FlightAware ADS-B
Sun 04:53:57 AM 52.1674 -6.2384 102° East 492 566 35,000  Level FlightAware UK
Sun 04:54:08 AM 52.1750 -6.2030 102° East 531 611 35,000  Level FlightAware ADS-B
Sun 04:54:49 AM 52.1520 -6.0410 103° East 531 611 35,000  Level FlightAware ADS-B
Sun 04:55:25 AM 52.1390 -5.8980 103° East 533 613 35,000  Level FlightAware ADS-B
Sun 04:55:27 AM 52.1256 -5.8845 103° East 494 568 35,000  Level FlightAware UK
Sun 04:55:57 AM 52.1163 -5.7650 103° East 494 568 35,000  Level FlightAware UK
Sun 04:56:10 AM 52.1250 -5.7230 103° East 533 613 35,000  Level FlightAware ADS-B
Sun 04:56:50 AM 52.1120 -5.5620 103° East 535 616 35,000  Level FlightAware ADS-B
Sun 04:56:57 AM 52.0971 -5.5263 103° East 494 568 35,000  Level FlightAware UK
Sun 04:57:27 AM 52.0865 -5.4071 103° East 494 568 35,000  Level FlightAware UK
Sun 04:57:38 AM 52.0950 -5.3710 103° East 535 616 35,000  Level FlightAware ADS-B
Sun 04:58:18 AM 52.0800 -5.2130 99° East 535 616 35,000  Level FlightAware ADS-B
Sun 04:59:00 AM 52.0650 -5.0440 98° East 536 617 35,000  Level FlightAware ADS-B
Sun 04:59:44 AM 52.0460 -4.8730 100° East 535 616 35,000  Level FlightAware ADS-B
Sun 05:00:24 AM 52.0270 -4.7150 101° East 535 616 35,000  Level FlightAware ADS-B
Sun 05:01:00 AM 52.0097 -4.5715 101° East 535 616 35,000  Level FlightAware ADS-B
Sun 05:01:33 AM 51.9938 -4.4408 101° East 534 615 35,000  Level FlightAware ADS-B
Sun 05:02:07 AM 51.9772 -4.3085 101° East 535 616 35,000  Level FlightAware ADS-B
Sun 05:02:43 AM 51.9594 -4.1675 102° East 535 616 35,000  Level FlightAware ADS-B
Sun 05:03:15 AM 51.9435 -4.0427 102° East 535 616 35,000  Level FlightAware ADS-B
Sun 05:03:47 AM 51.9270 -3.9185 102° East 535 616 35,000  Level FlightAware ADS-B
Sun 05:04:38 AM 51.9030 -3.7170 101° East 536 617 35,000  Level FlightAware ADS-B
Sun 05:04:59 AM 51.8954 -3.6316 98° East 537 618 35,000  Level FlightAware ADS-B
Sun 05:05:51 AM 51.8692 -3.4155 98° East 494 568 35,000  Level FlightAware UK
Sun 05:06:01 AM 51.8743 -3.3853 98° East 537 618 35,000  Level FlightAware ADS-B
Sun 05:06:45 AM 51.8590 -3.2110 98° East 536 617 35,000  Level FlightAware ADS-B
Sun 05:07:01 AM 51.8539 -3.1496 98° East 536 617 35,000  Level FlightAware ADS-B
Sun 05:07:35 AM 51.8420 -3.0122 98° East 535 616 35,000  Level FlightAware ADS-B
Sun 05:08:06 AM 51.8314 -2.8898 98° East 534 615 35,000  Level FlightAware ADS-B
Sun 05:08:37 AM 51.8207 -2.7693 98° East 533 613 35,000  Level FlightAware ADS-B
Sun 05:09:07 AM 51.8099 -2.6508 98° East 532 612 35,000  Level FlightAware ADS-B
Sun 05:09:41 AM 51.7977 -2.5182 98° East 531 611 35,000  Level FlightAware ADS-B
Sun 05:10:13 AM 51.7860 -2.3938 99° East 531 611 35,000  Level FlightAware ADS-B
Sun 05:10:43 AM 51.7745 -2.2743 99° East 531 611 35,000  Level FlightAware ADS-B
Sun 05:11:19 AM 51.7612 -2.1369 99° East 532 612 35,000  Level FlightAware ADS-B
Sun 05:11:51 AM 51.7484 -2.0090 99° East 531 611 35,000  Level FlightAware ADS-B
Sun 05:12:22 AM 51.7366 -1.8906 99° East 531 611 35,000  Level FlightAware ADS-B
Sun 05:12:52 AM 51.7247 -1.7732 99° East 530 610 35,000  Level FlightAware ADS-B
Sun 05:13:22 AM 51.7129 -1.6560 99° East 530 610 35,000  Level FlightAware ADS-B
Sun 05:13:52 AM 51.7011 -1.5384 99° East 530 610 35,000  Level FlightAware ADS-B
Sun 05:14:22 AM 51.6889 -1.4216 100° East 530 610 35,000  Level FlightAware ADS-B
Sun 05:14:52 AM 51.6766 -1.3037 100° East 531 611 35,000  Level FlightAware ADS-B
Sun 05:15:23 AM 51.6623 -1.1866 101° East 532 612 35,000  Level FlightAware ADS-B
Sun 05:15:54 AM 51.6461 -1.0677 102° East 531 611 35,000  Level FlightAware ADS-B
Sun 05:16:25 AM 51.6295 -0.9457 102° East 532 612 35,000  Level FlightAware ADS-B
Sun 05:16:56 AM 51.6133 -0.8270 102° East 533 613 35,000  Level FlightAware ADS-B
Sun 05:17:28 AM 51.5964 -0.7037 102° East 533 613 35,000  Level FlightAware ADS-B
Sun 05:17:58 AM 51.5807 -0.5874 102° East 534 615 35,000  Level FlightAware ADS-B
Sun 05:18:28 AM 51.5645 -0.4687 102° East 534 615 35,000  Level FlightAware ADS-B
Sun 05:19:02 AM 51.5468 -0.3383 102° East 535 616 35,000  Level FlightAware ADS-B
Sun 05:19:33 AM 51.5304 -0.2206 103° East 535 616 35,000  Level FlightAware ADS-B
Sun 05:20:04 AM 51.5134 -0.0982 103° East 535 616 35,000  Level FlightAware ADS-B
Sun 05:20:34 AM 51.4970 0.0182 103° East 535 616 35,000  Level FlightAware ADS-B
Sun 05:21:05 AM 51.4801 0.1376 103° East 535 616 35,000  Level FlightAware ADS-B
Sun 05:21:35 AM 51.4634 0.2544 103° East 536 617 35,000  Level FlightAware ADS-B
Sun 05:22:21 AM 51.4377 0.4317 103° East 537 618 35,000  Level FlightAware ADS-B
Sun 05:22:54 AM 51.4191 0.5588 103° East 537 618 35,000  Level FlightAware ADS-B
Sun 05:23:25 AM 51.4020 0.6765 103° East 538 619 35,000  Level FlightAware ADS-B
Sun 05:23:55 AM 51.3845 0.7957 103° East 537 618 35,000  Level FlightAware ADS-B
Sun 05:24:26 AM 51.3670 0.9136 103° East 537 618 35,000  Level FlightAware ADS-B
Sun 05:25:11 AM 51.3413 1.0854 103° East 537 618 35,000  Level FlightAware ADS-B
Sun 05:25:42 AM 51.3217 1.2215 103° East 492 566 35,000  Level FlightAware UK
Sun 05:26:12 AM 51.3043 1.3368 104° East 492 566 35,000  Level FlightAware UK
Sun 05:26:13 AM 51.3060 1.3150 104° East 537 618 35,000  Level FlightAware ADS-B
Sun 05:26:57 AM 51.2790 1.4910 104° East 538 619 35,000  Level FlightAware ADS-B
Sun 05:27:39 AM 51.2540 1.6530 104° East 538 619 35,000  Level FlightAware ADS-B
Sun 05:28:14 AM 51.2340 1.7830 104° East 537 618 35,000  Level FlightAware ADS-B
Sun 05:29:00 AM 51.2030 1.9640 105° East 539 620 35,000  Level FlightAware ADS-B
Sun 05:29:13 AM 51.1881 2.0139 115° Southeast 539 620 35,000  Level FlightAware ADS-B
Sun 05:29:45 AM 51.1524 2.1262 117° Southeast 541 623 35,000  Level FlightAware ADS-B
Sun 05:30:16 AM 51.1185 2.2365 116° Southeast 541 623 35,000  Level FlightAware ADS-B
Sun 05:30:56 AM 51.0746 2.3826 116° Southeast 541 623 35,000  Level FlightAware ADS-B
Sun 05:31:43 AM 51.0242 2.5639 116° Southeast 494 568 35,000  Level FlightAware UK
Sun 05:32:13 AM 50.9925 2.6724 115° Southeast 494 568 35,000  Level FlightAware UK
Sun 05:32:49 AM 50.9520 2.7998 117° Southeast 494 568 35,000  Level FlightAware UK
Sun 05:33:11 AM 50.9310 2.8550 117° Southeast 541 623 35,000  Level FlightAware ADS-B
Sun 05:34:21 AM 50.8510 3.1070 117° Southeast 542 624 35,000  Level FlightAware ADS-B
Sun 05:35:06 AM 50.8020 3.2620 117° Southeast 541 623 35,000  Level FlightAware ADS-B
Sun 05:35:37 AM 50.7620 3.3925 117° Southeast 494 568 35,000  Level FlightAware UK
Sun 05:35:56 AM 50.7460 3.4370 117° Southeast 541 623 35,000  Level FlightAware ADS-B
Sun 05:36:43 AM 50.6870 3.6239 117° Southeast 494 568 35,000  Level FlightAware UK
Sun 05:36:56 AM 50.6760 3.6530 117° Southeast 541 623 35,000  Level FlightAware ADS-B
Sun 05:37:36 AM 50.6310 3.7900 117° Southeast 540 621 35,000  Level FlightAware ADS-B
Sun 05:38:13 AM 50.5834 3.9377 117° Southeast 496 571 35,000  Level FlightAware UK
Sun 05:38:23 AM 50.5810 3.9410 117° Southeast 540 621 35,000  Level FlightAware ADS-B
Sun 05:38:55 AM 50.5350 4.0839 117° Southeast 496 571 35,000  Level FlightAware UK
Sun 05:39:01 AM 50.5370 4.0740 117° Southeast 539 620 35,000  Level FlightAware ADS-B
Sun 05:39:46 AM 50.4830 4.2350 118° Southeast 539 620 35,000  Level FlightAware ADS-B
Sun 05:40:24 AM 50.4420 4.3560 118° Southeast 538 619 35,000  Level FlightAware ADS-B
Sun 05:40:26 AM 50.4299 4.3949 118° Southeast 1 1 35,000  Level FlightAware UK
Sun 05:40:56 AM 50.3952 4.4983 118° Southeast 1 1 35,000  Level FlightAware UK
Sun 05:41:26 AM 50.3660 4.5790 118° Southeast 536 617 35,000  Level FlightAware ADS-B
Sun 05:42:06 AM 50.3220 4.7100 118° Southeast 535 616 35,000  Level FlightAware ADS-B
Sun 05:42:46 AM 50.2720 4.8550 118° Southeast 535 616 35,000  Level FlightAware ADS-B
Sun 05:43:31 AM 50.2210 5.0060 118° Southeast 534 615 35,000  Level FlightAware ADS-B
Sun 05:44:11 AM 50.1760 5.1360 118° Southeast 532 612 35,000  Level FlightAware ADS-B
Sun 05:44:51 AM 50.1270 5.2790 118° Southeast 531 611 35,000  Level FlightAware ADS-B
Sun 05:45:31 AM 50.0860 5.3970 118° Southeast 531 611 35,000  Level FlightAware ADS-B
Sun 05:46:31 AM 50.0150 5.6020 118° Southeast 529 609 35,000  Level FlightAware ADS-B
Sun 05:47:16 AM 49.9560 5.7670 119° Southeast 527 606 35,000  Level FlightAware ADS-B
Sun 05:47:55 AM 49.9110 5.8930 119° Southeast 527 606 35,000  Level FlightAware ADS-B
Sun 05:48:37 AM 49.8640 6.0260 119° Southeast 527 606 35,000  Level FlightAware ADS-B
Sun 05:49:14 AM 49.8180 6.1540 119° Southeast 528 608 35,000  Level FlightAware ADS-B
Sun 05:49:57 AM 49.7650 6.3010 119° Southeast 528 608 35,000  Level FlightAware ADS-B
Sun 05:50:42 AM 49.7120 6.4480 119° Southeast 527 606 35,000  Level FlightAware ADS-B
Sun 05:51:26 AM 49.6590 6.5920 120° Southeast 528 608 35,000  Level FlightAware ADS-B
Sun 05:52:11 AM 49.6060 6.7390 119° Southeast 528 608 35,000  Level FlightAware ADS-B
Sun 05:52:52 AM 49.5570 6.8720 120° Southeast 528 608 35,000  Level FlightAware ADS-B
Sun 05:53:34 AM 49.5050 7.0110 120° Southeast 528 608 35,000  Level FlightAware ADS-B
Sun 05:54:14 AM 49.4540 7.1380 122° Southeast 528 608 35,000  Level FlightAware ADS-B
Sun 05:54:56 AM 49.3960 7.2660 125° Southeast 528 608 35,000  Level FlightAware ADS-B
Sun 05:55:39 AM 49.3340 7.3920 127° Southeast 528 608 35,000  Level FlightAware ADS-B
Sun 05:56:19 AM 49.2730 7.5140 127° Southeast 528 608 35,000  Level FlightAware ADS-B
Sun 05:57:04 AM 49.2050 7.6500 127° Southeast 528 608 35,000  Level FlightAware ADS-B
Sun 05:57:44 AM 49.1480 7.7660 127° Southeast 528 608 35,000  Level FlightAware ADS-B
Sun 05:58:27 AM 49.0850 7.8930 127° Southeast 528 608 35,000  Level FlightAware ADS-B
Sun 05:59:08 AM 49.0230 8.0170 127° Southeast 529 609 35,000  Level FlightAware ADS-B
Sun 05:59:50 AM 48.9600 8.1410 128° Southeast 529 609 35,000  Level FlightAware ADS-B
Sun 06:00:25 AM 48.9080 8.2430 128° Southeast 530 610 35,000  Level FlightAware ADS-B
Sun 06:01:12 AM 48.8380 8.3810 128° Southeast 530 610 35,000  Level FlightAware ADS-B
Sun 06:02:22 AM 48.7390 8.5740 128° Southeast 530 610 35,000  Level FlightAware ADS-B
Sun 06:03:07 AM 48.6640 8.7210 128° Southeast 532 612 35,000  Level FlightAware ADS-B
Sun 06:03:47 AM 48.6030 8.8380 128° Southeast 532 612 35,000  Level FlightAware ADS-B
Sun 06:04:32 AM 48.5350 8.9670 128° Southeast 532 612 35,000  Level FlightAware ADS-B
Sun 06:05:07 AM 48.4810 9.0690 129° Southeast 532 612 35,000  Level FlightAware ADS-B
Sun 06:05:52 AM 48.4150 9.1940 128° Southeast 532 612 35,000  Level FlightAware ADS-B
Sun 06:06:37 AM 48.3450 9.3260 129° Southeast 533 613 35,000  Level FlightAware ADS-B
Sun 06:07:16 AM 48.2830 9.4380 130° Southeast 532 612 35,000  Level FlightAware ADS-B
Sun 06:07:48 AM 48.2250 9.5240 135° Southeast 532 612 35,000  Level FlightAware ADS-B
Sun 06:08:31 AM 48.1480 9.6210 140° Southeast 526 605 35,000  Level FlightAware ADS-B
Sun 06:09:11 AM 48.0680 9.7040 145° Southeast 526 605 35,000  Level FlightAware ADS-B
Sun 06:10:04 AM 47.9590 9.8180 145° Southeast 534 615 35,000  Level FlightAware ADS-B
Sun 06:10:44 AM 47.8820 9.8990 145° Southeast 535 616 35,000  Level FlightAware ADS-B
Sun 06:11:55 AM 47.7580 10.0280 145° Southeast 538 619 35,000  Level FlightAware ADS-B
Sun 06:12:38 AM 47.6430 10.1440 146° Southeast 538 619 35,000  Level FlightAware ADS-B
Sun 06:13:35 AM 47.5260 10.2610 146° Southeast 533 613 35,000  Level FlightAware ADS-B
Sun 06:14:16 AM 47.4460 10.3430 145° Southeast 541 623 35,000  Level FlightAware ADS-B
Sun 06:14:55 AM 47.3620 10.4260 146° Southeast 542 624 35,000  Level FlightAware ADS-B
Sun 06:18:00 AM 47.1263 11.0046 121° Southeast  Level Estimated
Sun 06:19:00 AM 47.0493 11.1911 121° Southeast  Level Estimated
Sun 06:20:00 AM 46.9719 11.3771 121° Southeast  Level Estimated
Sun 06:21:00 AM 46.8943 11.5626 121° Southeast  Level Estimated
Sun 06:22:00 AM 46.8163 11.7476 122° Southeast  Level Estimated
Sun 06:23:00 AM 46.7380 11.9319 122° Southeast  Level Estimated
Sun 06:24:00 AM 46.6595 12.1158 122° Southeast  Level Estimated
Sun 06:25:00 AM 46.5807 12.2991 122° Southeast  Level Estimated
Sun 06:26:00 AM 46.5015 12.4819 122° Southeast  Level Estimated
Sun 06:27:00 AM 46.4221 12.6642 122° Southeast  Level Estimated
Sun 06:28:00 AM 46.3424 12.8459 122° Southeast  Level Estimated
Sun 06:29:00 AM 46.2624 13.0271 123° Southeast  Level Estimated
Sun 06:30:00 AM 46.1821 13.2078 123° Southeast  Level Estimated
Sun 06:30:16 AM 45.9090 12.4640 123° Southeast 544 626 35,000  Level FlightAware ADS-B
Sun 06:30:56 AM 45.6670 12.8100 135° Southeast 536 617 35,000  Level FlightAware ADS-B
Sun 06:31:36 AM 45.5980 12.9130 134° Southeast 536 617 35,000  Level FlightAware ADS-B
Sun 06:32:21 AM 45.5130 13.0370 134° Southeast 533 613 35,000  Level FlightAware ADS-B
Sun 06:33:05 AM 45.4170 13.1770 134° Southeast 536 617 35,000  Level FlightAware ADS-B
Sun 06:33:45 AM 45.3470 13.2790 134° Southeast 537 618 35,000  Level FlightAware ADS-B
Sun 06:34:30 AM 45.2700 13.3900 135° Southeast 539 620 35,000  Level FlightAware ADS-B
Sun 06:36:21 AM 45.0730 13.6740 134° Southeast 545 627 35,000  Level FlightAware ADS-B
Sun 06:38:39 AM 44.8350 14.0380 133° Southeast 535 616 35,000  Level FlightAware ADS-B
Sun 06:40:34 AM 44.6660 14.3520 127° Southeast 534 615 35,000  Level FlightAware ADS-B
Sun 06:42:34 AM 44.4890 14.6870 126° Southeast 539 620 35,000  Level FlightAware ADS-B
Sun 06:43:34 AM 44.4000 14.8550 127° Southeast 540 621 35,000  Level FlightAware ADS-B
Sun 06:44:29 AM 44.3160 15.0120 127° Southeast 542 624 35,000  Level FlightAware ADS-B
Sun 06:45:09 AM 44.2540 15.1280 127° Southeast 542 624 35,000  Level FlightAware ADS-B
Sun 06:45:49 AM 44.1930 15.2400 127° Southeast 541 623 35,000  Level FlightAware ADS-B
Sun 06:47:14 AM 44.0680 15.4720 127° Southeast 538 619 35,000  Level FlightAware ADS-B
Sun 06:48:09 AM 43.9820 15.6300 127° Southeast 537 618 35,000  Level FlightAware ADS-B
Sun 06:48:54 AM 43.9160 15.7500 127° Southeast 538 619 35,000  Level FlightAware ADS-B
Sun 06:49:35 AM 43.8480 15.8730 127° Southeast 543 625 35,000  Level FlightAware ADS-B
Sun 06:50:19 AM 43.7840 15.9870 128° Southeast 543 625 35,000 220 Level FlightAware ADS-B
Sun 06:51:24 AM 43.6840 16.1680 127° Southeast 545 627 35,400 818 Climbing FlightAware ADS-B
Sun 06:52:09 AM 43.6130 16.2940 128° Southeast 545 627 36,500 1,103 Climbing FlightAware ADS-B
Sun 06:52:51 AM 43.5480 16.4090 128° Southeast 544 626 37,000 375 Climbing FlightAware ADS-B
Sun 06:53:29 AM 43.4890 16.5140 128° Southeast 542 624 37,000  Level FlightAware ADS-B
Sun 06:54:14 AM 43.4210 16.6340 128° Southeast 540 621 37,000  Level FlightAware ADS-B
Sun 06:54:54 AM 43.3620 16.7380 128° Southeast 535 616 37,000  Level FlightAware ADS-B
Sun 06:55:34 AM 43.2990 16.8490 128° Southeast 536 617 37,000  Level FlightAware ADS-B
Sun 06:56:14 AM 43.2390 16.9550 128° Southeast 541 623 37,000  Level FlightAware ADS-B
Sun 06:56:54 AM 43.1750 17.0660 128° Southeast 537 618 37,000  Level FlightAware ADS-B
Sun 06:57:38 AM 43.1050 17.1870 128° Southeast 543 625 37,000  Level FlightAware ADS-B
Sun 06:58:54 AM 42.9870 17.3920 128° Southeast 537 618 37,000  Level FlightAware ADS-B
Sun 06:59:33 AM 42.9380 17.4760 129° Southeast 535 616 37,000  Level FlightAware ADS-B
Sun 07:00:17 AM 42.8680 17.6110 125° Southeast 531 611 37,000  Level FlightAware ADS-B
Sun 07:00:59 AM 42.8130 17.7290 122° Southeast 530 610 37,000  Level FlightAware ADS-B
Sun 07:01:37 AM 42.7610 17.8390 123° Southeast 529 609 37,000  Level FlightAware ADS-B
Sun 07:02:34 AM 42.6920 17.9850 123° Southeast 522 601 37,000  Level FlightAware ADS-B
Sun 07:03:21 AM 42.6220 18.1280 124° Southeast 527 606 37,000  Level FlightAware ADS-B
Sun 07:04:01 AM 42.5600 18.2290 130° Southeast 528 608 37,000  Level FlightAware ADS-B
Sun 07:04:43 AM 42.4890 18.3310 133° Southeast 528 608 37,000  Level FlightAware ADS-B
Sun 07:05:43 AM 42.3870 18.4700 135° Southeast 529 609 37,000  Level FlightAware ADS-B
Sun 07:06:23 AM 42.3160 18.5680 134° Southeast 530 610 37,000  Level FlightAware ADS-B
Sun 07:07:01 AM 42.2520 18.6570 134° Southeast 530 610 37,000  Level FlightAware ADS-B
Sun 07:07:43 AM 42.1810 18.7540 135° Southeast 530 610 37,000  Level FlightAware ADS-B
Sun 07:08:31 AM 42.0960 18.8700 135° Southeast 530 610 37,000  Level FlightAware ADS-B
Sun 07:09:11 AM 42.0300 18.9600 135° Southeast 529 609 37,000  Level FlightAware ADS-B
Sun 07:09:51 AM 41.9580 19.0590 134° Southeast 528 608 37,000  Level FlightAware ADS-B
Sun 07:10:29 AM 41.8930 19.1480 134° Southeast 528 608 37,000  Level FlightAware ADS-B
Sun 07:11:09 AM 41.8260 19.2390 135° Southeast 527 606 37,000  Level FlightAware ADS-B
Sun 07:12:11 AM 41.7160 19.3760 137° Southeast 525 604 37,000  Level FlightAware ADS-B
Sun 07:12:55 AM 41.6340 19.4690 140° Southeast 524 603 37,000  Level FlightAware ADS-B
Sun 07:13:39 AM 41.5570 19.5630 138° Southeast 526 605 37,000  Level FlightAware ADS-B
Sun 07:14:19 AM 41.4860 19.6610 134° Southeast 526 605 37,000  Level FlightAware ADS-B
Sun 07:14:55 AM 41.4250 19.7450 134° Southeast 526 605 37,000  Level FlightAware ADS-B
Sun 07:17:00 AM 41.2544 20.0924 123° Southeast  Level Estimated
Sun 07:18:00 AM 41.1721 20.2586 123° Southeast  Level Estimated
Sun 07:18:18 AM 41.1370 20.1270 123° Southeast 526 605 37,000  Level FlightAware ADS-B
Sun 07:19:00 AM 41.0896 20.4243 123° Southeast  Level Estimated
Sun 07:21:00 AM 40.9161 20.5753 123° Southeast  Level Estimated
Sun 07:22:00 AM 40.8338 20.7406 123° Southeast  Level Estimated
Sun 07:23:00 AM 40.7513 20.9054 123° Southeast  Level Estimated
Sun 07:24:00 AM 40.6685 21.0699 124° Southeast  Level Estimated
Sun 07:25:00 AM 40.5856 21.2339 124° Southeast  Level Estimated
Sun 07:26:00 AM 40.5024 21.3976 124° Southeast  Level Estimated
Sun 07:27:00 AM 40.4189 21.5608 124° Southeast  Level Estimated
Sun 07:28:00 AM 40.3353 21.7236 124° Southeast  Level Estimated
Sun 07:28:51 AM 40.1690 21.3850 124° Southeast 524 603 37,000  Level FlightAware ADS-B
Sun 07:29:00 AM 40.2514 21.8860 124° Southeast  Level Estimated
Sun 07:29:58 AM 39.9120 21.7550 132° Southeast 524 603 37,000  Level FlightAware ADS-B
Sun 07:30:44 AM 39.8230 21.8850 132° Southeast 525 604 37,000  Level FlightAware ADS-B
Sun 07:31:22 AM 39.7580 21.9790 132° Southeast 526 605 37,000  Level FlightAware ADS-B
Sun 07:32:16 AM 39.6660 22.1110 132° Southeast 528 608 37,000  Level FlightAware ADS-B
Sun 07:33:12 AM 39.5770 22.2400 132° Southeast 528 608 37,000  Level FlightAware ADS-B
Sun 07:33:54 AM 39.5050 22.3420 132° Southeast 527 606 37,000  Level FlightAware ADS-B
Sun 07:34:41 AM 39.4330 22.4450 132° Southeast 526 605 37,000  Level FlightAware ADS-B
Sun 07:37:00 AM 39.2458 22.8222 123° Southeast  Level Estimated
Sun 07:37:57 AM 39.1050 22.9030 123° Southeast 527 606 37,000  Level FlightAware ADS-B
Sun 07:38:00 AM 39.1647 22.9844 123° Southeast  Level Estimated
Sun 07:38:39 AM 39.0430 23.0120 126° Southeast 534 615 37,000  Level FlightAware ADS-B
Sun 07:39:23 AM 38.9800 23.1250 126° Southeast 532 612 37,000  Level FlightAware ADS-B
Sun 07:40:07 AM 38.9170 23.2350 126° Southeast 531 611 37,000  Level FlightAware ADS-B
Sun 07:40:55 AM 38.8450 23.3570 127° Southeast 532 612 37,000  Level FlightAware ADS-B
Sun 07:41:39 AM 38.7790 23.4680 127° Southeast 532 612 37,000  Level FlightAware ADS-B
Sun 07:42:31 AM 38.7020 23.5990 127° Southeast 532 612 37,000  Level FlightAware ADS-B
Sun 07:43:17 AM 38.6340 23.7130 127° Southeast 532 612 37,000  Level FlightAware ADS-B
Sun 07:44:33 AM 38.5200 23.9040 127° Southeast 529 609 37,000  Level FlightAware ADS-B
Sun 07:44:57 AM 38.4840 23.9630 128° Southeast 528 608 37,000  Level FlightAware ADS-B
Sun 07:48:00 AM 38.2362 24.4517 123° Southeast  Level Estimated
Sun 07:49:00 AM 38.1545 24.6112 123° Southeast  Level Estimated
Sun 07:50:00 AM 38.0726 24.7703 123° Southeast  Level Estimated
Sun 07:51:00 AM 37.9905 24.9291 123° Southeast  Level Estimated
Sun 07:52:00 AM 37.9082 25.0876 123° Southeast  Level Estimated
Sun 07:53:00 AM 37.8256 25.2456 123° Southeast  Level Estimated
Sun 07:54:00 AM 37.7429 25.4034 124° Southeast  Level Estimated
Sun 07:55:00 AM 37.6599 25.5607 124° Southeast  Level Estimated
Sun 07:56:00 AM 37.5768 25.7178 124° Southeast  Level Estimated
Sun 07:57:00 AM 37.4934 25.8744 124° Southeast  Level Estimated
Sun 07:58:00 AM 37.4098 26.0307 124° Southeast  Level Estimated
Sun 07:59:00 AM 37.3260 26.1867 124° Southeast  Level Estimated
Sun 08:00:00 AM 37.2420 26.3423 124° Southeast  Level Estimated
Sun 08:00:57 AM 37.1010 26.2320 124° Southeast 514 592 37,000  Level FlightAware ADS-B
Sun 08:01:00 AM 37.1578 26.4976 124° Southeast  Level Estimated
Sun 08:01:52 AM 37.0190 26.3590 129° Southeast 514 592 37,000  Level FlightAware ADS-B
Sun 08:02:30 AM 36.9650 26.4450 128° Southeast 514 592 37,000  Level FlightAware ADS-B
Sun 08:03:43 AM 36.8560 26.6150 129° Southeast 513 590 37,000  Level FlightAware ADS-B
Sun 08:05:11 AM 36.7030 26.8530 129° Southeast 511 588 37,000  Level FlightAware ADS-B
Sun 08:06:14 AM 36.6090 26.9980 129° Southeast 510 587 37,000  Level FlightAware ADS-B
Sun 08:08:00 AM 36.4648 27.2737 123° Southeast  Level Estimated
Sun 08:08:11 AM 36.4360 27.2650 123° Southeast 509 586 37,000  Level FlightAware ADS-B
Sun 08:08:47 AM 36.3820 27.3480 129° Southeast 508 585 37,000  Level FlightAware ADS-B
Sun 08:11:00 AM 36.2013 27.6931 123° Southeast  Level Estimated
Sun 08:12:00 AM 36.1195 27.8482 123° Southeast  Level Estimated
Sun 08:12:13 AM 36.1130 27.7650 123° Southeast 499 574 37,000  Level FlightAware ADS-B
Sun 08:13:02 AM 36.0290 27.8900 130° Southeast 498 573 37,000  Level FlightAware ADS-B
Sun 08:13:11 AM 35.9970 27.9370 130° Southeast 498 573 37,000  Level FlightAware ADS-B
Sun 08:14:31 AM 35.8800 28.1120 129° Southeast 501 577 37,000  Level FlightAware ADS-B
Sun 08:15:11 AM 35.8280 28.1920 129° Southeast 501 577 37,000  Level FlightAware ADS-B
Sun 08:17:00 AM 35.6811 28.4738 123° Southeast  Level Estimated
Sun 08:17:12 AM 35.6680 28.4340 123° Southeast 501 577 37,000  Level FlightAware ADS-B
Sun 08:20:00 AM 35.4420 28.8675 123° Southeast  Level Estimated
Sun 08:21:00 AM 35.3608 29.0218 123° Southeast  Level Estimated
Sun 08:22:00 AM 35.2795 29.1757 123° Southeast  Level Estimated
Sun 08:22:59 AM 35.1470 29.1950 123° Southeast 501 577 37,000  Level FlightAware ADS-B
Sun 08:23:00 AM 35.1980 29.3294 123° Southeast  Level Estimated
Sun 08:23:38 AM 35.0990 29.2680 129° Southeast 501 577 37,000  Level FlightAware ADS-B
Sun 08:24:36 AM 34.9870 29.4270 131° Southeast 504 580 37,000  Level FlightAware ADS-B
Sun 08:25:17 AM 34.9440 29.4900 130° Southeast 504 580 37,000  Level FlightAware ADS-B
Sun 08:26:11 AM 34.8420 29.6370 130° Southeast 502 578 37,000  Level FlightAware ADS-B
Sun 08:26:41 AM 34.7970 29.7010 131° Southeast 502 578 37,000  Level FlightAware ADS-B
Sun 08:29:00 AM 34.6160 30.0606 121° Southeast  Level Estimated
Sun 08:29:00 AM 34.5950 29.9920 121° Southeast 503 579 37,000  Level FlightAware ADS-B
Sun 08:29:41 AM 34.5350 30.1100 122° Southeast 514 592 37,000  Level FlightAware ADS-B
Sun 08:30:27 AM 34.4820 30.2210 120° Southeast 516 594 37,000  Level FlightAware ADS-B
Sun 08:31:53 AM 34.3790 30.4360 120° Southeast 516 594 37,000  Level FlightAware ADS-B
Sun 08:32:29 AM 34.3360 30.5270 120° Southeast 517 595 37,000  Level FlightAware ADS-B
Sun 08:34:35 AM 34.1880 30.8310 120° Southeast 515 593 37,000  Level FlightAware ADS-B
Sun 08:35:09 AM 34.1420 30.9280 120° Southeast 515 593 37,000  Level FlightAware ADS-B
Sun 08:35:45 AM 34.0990 31.0150 121° Southeast 514 592 37,000  Level FlightAware ADS-B
Sun 08:36:31 AM 34.0470 31.1220 120° Southeast 515 593 37,000  Level FlightAware ADS-B
Sun 08:37:27 AM 33.9750 31.2680 121° Southeast 515 593 37,000  Level FlightAware ADS-B
Sun 08:38:07 AM 33.9260 31.3680 121° Southeast 515 593 37,000  Level FlightAware ADS-B
Sun 08:39:17 AM 33.8420 31.5390 121° Southeast 514 592 37,000  Level FlightAware ADS-B
Sun 08:39:58 AM 33.7940 31.6380 120° Southeast 513 590 37,000  Level FlightAware ADS-B
Sun 08:40:43 AM 33.7390 31.7490 121° Southeast 513 590 37,000  Level FlightAware ADS-B
Sun 08:41:24 AM 33.6880 31.8520 121° Southeast 513 590 37,000  Level FlightAware ADS-B
Sun 08:42:06 AM 33.6390 31.9510 121° Southeast 513 590 37,000  Level FlightAware ADS-B
Sun 08:43:06 AM 33.5670 32.0950 121° Southeast 508 585 37,000  Level FlightAware ADS-B
Sun 08:43:45 AM 33.5180 32.1920 121° Southeast 507 583 37,000  Level FlightAware ADS-B
Sun 08:44:30 AM 33.4620 32.3030 121° Southeast 506 582 37,000  Level FlightAware ADS-B
Sun 08:44:55 AM 33.4340 32.3590 121° Southeast 507 583 37,000 -1,652 Level FlightAware ADS-B
Sun 08:48:00 AM 33.3029 32.8886 106° East  Level FlightAware Approximate
Sun 08:49:00 AM 33.2124 33.0312 131° Southeast  Level Estimated
Sun 08:50:00 AM 33.1218 33.1734 132° Southeast  Level Estimated
Sun 08:51:00 AM 33.0311 33.3153 127° Southeast  Level Estimated
Sun 08:52:00 AM 32.9402 33.4570 129° Southeast  Level Estimated
Sun 08:53:00 AM 32.8471 33.5965 128° Southeast  Level FlightAware Approximate
Sun 08:53:53 AM 32.8400 33.5160 130° Southeast 431 496 21,500  Level FlightAware ADS-B
Sun 08:54:00 AM 32.7561 33.7378 130° Southeast  Level Estimated
Sun 08:54:42 AM 32.7880 33.6170 121° Southeast 415 478 19,900  Level FlightAware ADS-B
Sun 08:55:40 AM 32.7160 33.7560 122° Southeast 391 450 17,600 -2,118 Descending FlightAware ADS-B
Sun 08:56:24 AM 32.6740 33.8360 122° Southeast 379 436 16,300 -1,694 Descending FlightAware ADS-B
Sun 08:57:05 AM 32.6380 33.9050 122° Southeast 369 425 15,200 -1,692 Descending FlightAware ADS-B
Sun 08:57:42 AM 32.6040 33.9690 122° Southeast 358 412 14,100 -1,705 Descending FlightAware ADS-B
Sun 08:58:40 AM 32.5540 34.0650 122° Southeast 344 396 12,500 -1,685 Descending FlightAware ADS-B
Sun 09:00:08 AM 32.4740 34.1950 126° Southeast 337 388 10,000 -1,768 Descending FlightAware ADS-B
Sun 09:00:32 AM 32.4480 34.2250 136° Southeast 338 389 9,200 -485 Descending FlightAware ADS-B
Sun 09:01:47 AM 32.3790 34.3100 134° Southeast 338 389 9,200  Level FlightAware ADS-B
Sun 09:04:00 AM 32.1526 34.5958 126° Southeast  Level FlightAware Approximate
Sun 09:05:00 AM 32.0676 34.7393 115° Southeast  Level FlightAware Approximate
Sun 09:06:00 AM 32.0000 34.8667 125° Southeast  Level FlightAware Approximate
Sun 09:07:00 AM 32.0095 34.8769 125° Southeast  Level Estimated
Sun 09:08:00 AM 32.0095 34.8769 125° Southeast  Level Estimated
Sun 09:09:00 AM 32.0095 34.8769 125° Southeast  Level Estimated
Sun 09:10:00 AM 32.0095 34.8769 125° Southeast  Level Estimated
Sun 09:11:00 AM 32.0095 34.8769 125° Southeast  Level Estimated
Sun 09:12:00 AM 32.0095 34.8769 125° Southeast  Level Estimated
Sun 09:13:00 AM 32.0095 34.8769 125° Southeast  Level Estimated
Sun 09:14:00 AM 32.0095 34.8769 125° Southeast  Level Estimated

Login

Don't have an account? Register now (free) for customized features, flight alerts, and more!